Time;durP1;ratioP1;P1;durP2;ratioP2;P2;SDS_P1;SDS_P2;PMS_P1;PMS_P2;Temp;Humidity;BMP_temperature;BMP_pressure;BME280_temperature;BME280_humidity;BME280_pressure;Samples;Min_cycle;Max_cycle;Signal;HPM_P1;HPM_P2
2023/10/07 00:00:26;;;;;;;11.33;4.83;;;;;;;;;;5111620;28;20462;-79
2023/10/07 00:02:55;;;;;;;6.97;4.50;;;;;;;;;;5107229;28;20459;-77
2023/10/07 00:05:27;;;;;;;16.50;4.00;;;;;;;;;;5107640;28;20483;-79
2023/10/07 00:08:00;;;;;;;15.03;6.30;;;;;;;;;;5107563;28;20573;-79
2023/10/07 00:10:29;;;;;;;13.90;4.83;;;;;;;;;;5105078;28;20636;-79
2023/10/07 00:13:00;;;;;;;9.60;4.20;;;;;;;;;;5107608;28;20444;-79
2023/10/07 00:15:29;;;;;;;10.13;4.10;;;;;;;;;;5105227;28;20929;-79
2023/10/07 00:18:00;;;;;;;7.83;4.70;;;;;;;;;;5105553;28;20466;-80
2023/10/07 00:20:33;;;;;;;6.93;4.00;;;;;;;;;;5105570;28;20758;-79
2023/10/07 00:23:02;;;;;;;11.30;4.63;;;;;;;;;;5107655;28;20527;-79
2023/10/07 00:25:33;;;;;;;7.63;4.67;;;;;;;;;;5106579;28;20521;-79
2023/10/07 00:28:00;;;;;;;9.70;4.80;;;;;;;;;;5105539;28;20770;-79
2023/10/07 00:30:30;;;;;;;10.60;6.00;;;;;;;;;;5106078;28;20536;-79
2023/10/07 00:32:58;;;;;;;11.57;4.93;;;;;;;;;;5099693;28;20456;-79
2023/10/07 00:35:29;;;;;;;13.50;6.50;;;;;;;;;;5104130;28;20524;-78
2023/10/07 00:37:59;;;;;;;10.90;5.40;;;;;;;;;;5104511;28;20459;-77
2023/10/07 00:40:41;;;;;;;10.27;5.87;;;;;;;;;;5103741;28;20428;-78
2023/10/07 00:43:11;;;;;;;8.40;5.53;;;;;;;;;;5103103;28;20455;-78
2023/10/07 00:45:40;;;;;;;14.90;8.10;;;;;;;;;;5107672;28;20912;-79
2023/10/07 00:48:11;;;;;;;9.97;5.97;;;;;;;;;;5109561;28;20451;-78
2023/10/07 00:50:40;;;;;;;9.97;7.00;;;;;;;;;;5105634;28;20707;-78
2023/10/07 00:53:09;;;;;;;11.10;7.83;;;;;;;;;;5105433;28;20525;-77
2023/10/07 00:55:38;;;;;;;11.63;7.30;;;;;;;;;;5103060;28;20467;-78
2023/10/07 00:58:13;;;;;;;12.20;7.30;;;;;;;;;;5106156;28;20511;-79
2023/10/07 01:00:48;;;;;;;11.57;7.90;;;;;;;;;;5103355;28;20499;-78
2023/10/07 01:03:47;;;;;;;15.97;8.97;;;;;;;;;;5112624;28;20462;-79
2023/10/07 01:06:22;;;;;;;10.20;7.57;;;;;;;;;;5112333;28;20455;-79
2023/10/07 01:08:55;;;;;;;11.20;9.33;;;;;;;;;;5109836;28;20466;-78
2023/10/07 01:11:29;;;;;;;10.37;7.73;;;;;;;;;;5114165;28;20482;-78
2023/10/07 01:13:59;;;;;;;13.30;8.00;;;;;;;;;;5111697;28;20444;-79
2023/10/07 01:16:32;;;;;;;13.67;9.70;;;;;;;;;;5111872;28;20469;-79
2023/10/07 01:19:18;;;;;;;9.73;7.43;;;;;;;;;;5114097;28;20512;-78
2023/10/07 01:21:55;;;;;;;13.77;8.37;;;;;;;;;;5111942;28;20454;-78
2023/10/07 01:24:44;;;;;;;10.67;8.17;;;;;;;;;;5113490;28;20546;-79
2023/10/07 01:27:41;;;;;;;11.17;8.33;;;;;;;;;;5111660;28;20464;-78
2023/10/07 01:30:17;;;;;;;14.17;10.47;;;;;;;;;;5107501;28;20494;-79
2023/10/07 01:32:54;;;;;;;17.47;9.83;;;;;;;;;;5114501;28;20455;-78
2023/10/07 01:35:31;;;;;;;16.73;10.77;;;;;;;;;;5102170;28;20475;-78
2023/10/07 01:38:08;;;;;;;12.80;9.00;;;;;;;;;;5107195;28;20451;-79
2023/10/07 01:40:55;;;;;;;15.00;10.10;;;;;;;;;;5112268;28;20559;-79
2023/10/07 01:43:24;;;;;;;16.00;9.90;;;;;;;;;;5106277;28;20483;-79
2023/10/07 01:45:53;;;;;;;13.87;10.93;;;;;;;;;;5106284;28;20444;-80
2023/10/07 01:48:21;;;;;;;15.80;10.00;;;;;;;;;;5106968;28;20795;-80
2023/10/07 01:50:50;;;;;;;13.93;10.47;;;;;;;;;;5106284;28;20498;-79
2023/10/07 01:53:17;;;;;;;14.50;11.50;;;;;;;;;;5107314;28;20519;-80
2023/10/07 01:55:46;;;;;;;15.77;11.37;;;;;;;;;;5110739;28;20448;-81
2023/10/07 01:58:14;;;;;;;14.80;11.10;;;;;;;;;;5107790;28;20470;-78
2023/10/07 02:00:51;;;;;;;18.13;11.00;;;;;;;;;;5108368;28;20513;-77
2023/10/07 02:03:23;;;;;;;12.63;9.93;;;;;;;;;;5104644;28;20875;-80
2023/10/07 02:05:52;;;;;;;12.40;9.77;;;;;;;;;;5107555;28;20885;-79
2023/10/07 02:08:22;;;;;;;17.90;10.60;;;;;;;;;;5103233;28;20515;-78
2023/10/07 02:10:56;;;;;;;19.13;10.70;;;;;;;;;;5105585;28;20494;-77
2023/10/07 02:13:29;;;;;;;15.97;11.07;;;;;;;;;;5112378;28;20511;-79
2023/10/07 02:15:57;;;;;;;15.83;9.70;;;;;;;;;;5108055;28;20515;-78
2023/10/07 02:18:28;;;;;;;17.30;10.23;;;;;;;;;;5104383;28;20452;-78
2023/10/07 02:21:07;;;;;;;14.73;10.67;;;;;;;;;;5106465;28;20456;-79
2023/10/07 02:23:37;;;;;;;11.57;10.10;;;;;;;;;;5111364;28;20463;-80
2023/10/07 02:26:07;;;;;;;11.93;10.03;;;;;;;;;;5106786;28;20702;-77
2023/10/07 02:28:35;;;;;;;15.10;9.40;;;;;;;;;;5104915;28;20444;-77
2023/10/07 02:31:07;;;;;;;12.90;8.60;;;;;;;;;;5104307;28;20578;-79
2023/10/07 02:33:41;;;;;;;13.90;9.60;;;;;;;;;;5104246;28;20471;-77
2023/10/07 02:36:27;;;;;;;14.60;11.90;;;;;;;;;;5102607;28;20458;-78
2023/10/07 02:39:03;;;;;;;12.03;9.73;;;;;;;;;;5104512;28;20463;-79
2023/10/07 02:41:32;;;;;;;13.30;9.90;;;;;;;;;;5107749;28;20455;-78
2023/10/07 02:44:06;;;;;;;12.40;9.07;;;;;;;;;;5104687;28;20539;-78
2023/10/07 02:46:32;;;;;;;15.33;10.03;;;;;;;;;;5108987;28;20451;-79
2023/10/07 02:49:09;;;;;;;11.83;7.47;;;;;;;;;;5109324;28;20503;-79
2023/10/07 02:51:39;;;;;;;17.00;10.87;;;;;;;;;;5110759;28;20479;-78
2023/10/07 02:54:16;;;;;;;16.50;9.40;;;;;;;;;;5105322;28;20439;-78
2023/10/07 02:56:54;;;;;;;14.20;9.43;;;;;;;;;;5107088;28;20467;-79
2023/10/07 02:59:29;;;;;;;12.20;9.73;;;;;;;;;;5111268;28;20464;-78
2023/10/07 03:05:14;;;;;;;13.83;9.27;;;;;;;;;;5106402;28;20427;-77
2023/10/07 03:07:49;;;;;;;13.87;9.50;;;;;;;;;;5104185;28;20494;-79
2023/10/07 03:10:30;;;;;;;12.57;8.60;;;;;;;;;;5110631;28;20444;-78
2023/10/07 03:12:59;;;;;;;11.17;8.50;;;;;;;;;;5103263;28;20451;-79
2023/10/07 03:15:40;;;;;;;12.23;8.57;;;;;;;;;;5113638;28;20523;-78
2023/10/07 03:18:21;;;;;;;13.57;9.33;;;;;;;;;;5109563;28;20451;-80
2023/10/07 03:20:59;;;;;;;12.23;6.90;;;;;;;;;;5111437;28;20455;-78
2023/10/07 03:23:26;;;;;;;11.27;7.60;;;;;;;;;;5109373;28;20459;-78
2023/10/07 03:26:06;;;;;;;14.00;8.73;;;;;;;;;;5112375;28;20451;-79
2023/10/07 03:28:36;;;;;;;13.20;8.20;;;;;;;;;;5112483;28;20785;-79
2023/10/07 03:31:08;;;;;;;11.07;8.07;;;;;;;;;;5111478;28;20594;-79
2023/10/07 03:33:44;;;;;;;9.77;7.30;;;;;;;;;;5111722;28;20497;-80
2023/10/07 03:36:30;;;;;;;12.60;7.93;;;;;;;;;;5108101;28;20467;-77
2023/10/07 03:39:16;;;;;;;11.10;7.50;;;;;;;;;;5104958;28;20923;-78
2023/10/07 03:41:47;;;;;;;9.63;7.67;;;;;;;;;;5110263;28;20455;-79
2023/10/07 03:44:16;;;;;;;12.20;7.17;;;;;;;;;;5109496;28;20451;-78
2023/10/07 03:46:44;;;;;;;10.83;6.77;;;;;;;;;;5106846;28;20451;-79
2023/10/07 03:49:12;;;;;;;10.23;7.90;;;;;;;;;;5108419;28;20456;-79
2023/10/07 03:51:39;;;;;;;9.20;6.00;;;;;;;;;;5108920;28;20541;-80
2023/10/07 03:54:11;;;;;;;11.03;6.47;;;;;;;;;;5110677;28;20512;-78
2023/10/07 03:56:42;;;;;;;7.90;6.43;;;;;;;;;;5106463;28;20447;-79
2023/10/07 03:59:14;;;;;;;12.80;5.97;;;;;;;;;;5102193;28;20490;-79
2023/10/07 04:01:44;;;;;;;11.57;7.53;;;;;;;;;;5108184;28;20524;-78
2023/10/07 04:04:13;;;;;;;11.40;7.67;;;;;;;;;;5102365;28;20527;-78
2023/10/07 04:06:41;;;;;;;11.37;6.50;;;;;;;;;;5102299;28;20443;-78
2023/10/07 04:09:10;;;;;;;11.00;6.60;;;;;;;;;;5101766;28;20539;-79
2023/10/07 04:11:38;;;;;;;9.07;6.17;;;;;;;;;;5104060;28;20487;-78
2023/10/07 04:14:18;;;;;;;9.17;5.77;;;;;;;;;;5109655;28;20455;-79
2023/10/07 04:16:49;;;;;;;9.60;5.87;;;;;;;;;;5108432;28;20530;-78
2023/10/07 04:22:28;;;;;;;6.77;5.03;;;;;;;;;;5050131;27;3605726;-78
2023/10/07 04:25:07;;;;;;;7.20;5.87;;;;;;;;;;5164081;27;20223;-77
2023/10/07 04:27:41;;;;;;;8.87;5.60;;;;;;;;;;5162686;27;20948;-78
2023/10/07 04:30:13;;;;;;;7.00;4.97;;;;;;;;;;5162755;27;20520;-78
2023/10/07 04:33:00;;;;;;;6.27;4.67;;;;;;;;;;5162928;27;20437;-78
2023/10/07 04:35:32;;;;;;;6.43;4.80;;;;;;;;;;5163557;27;20474;-78
2023/10/07 04:38:19;;;;;;;6.17;5.30;;;;;;;;;;5167263;27;20457;-77
2023/10/07 04:43:48;;;;;;;4.20;3.33;;;;;;;;;;5096306;28;20466;-76
2023/10/07 04:46:22;;;;;;;5.13;4.57;;;;;;;;;;5099519;28;20452;-80
2023/10/07 04:48:54;;;;;;;6.47;3.97;;;;;;;;;;5098008;28;20877;-79
2023/10/07 04:51:35;;;;;;;6.00;3.60;;;;;;;;;;5100484;28;20452;-79
2023/10/07 04:54:04;;;;;;;6.43;3.60;;;;;;;;;;5098669;28;20534;-78
2023/10/07 04:56:32;;;;;;;6.50;3.90;;;;;;;;;;5097314;28;20751;-79
2023/10/07 04:59:00;;;;;;;6.80;4.30;;;;;;;;;;5100757;28;20452;-79
2023/10/07 05:01:31;;;;;;;5.30;3.57;;;;;;;;;;5106512;28;20484;-78
2023/10/07 05:03:59;;;;;;;4.50;3.27;;;;;;;;;;5099914;28;20456;-78
2023/10/07 05:11:57;;;;;;;4.43;3.33;;;;;;;;;;5105486;28;20448;-79
2023/10/07 05:14:28;;;;;;;5.27;3.10;;;;;;;;;;5102985;28;20460;-78
2023/10/07 05:17:10;;;;;;;5.93;3.70;;;;;;;;;;5098990;28;20684;-79
2023/10/07 05:19:50;;;;;;;;;;;;;;;;;;;;;
2023/10/07 05:28:17;;;;;;;6.60;3.63;;;;;;;;;;5114129;28;20536;-78
2023/10/07 05:33:41;;;;;;;8.13;3.97;;;;;;;;;;5105796;28;20483;-79
2023/10/07 05:36:15;;;;;;;6.80;3.37;;;;;;;;;;5108636;28;20455;-77
2023/10/07 05:38:54;;;;;;;6.53;3.40;;;;;;;;;;5102195;28;20475;-78
2023/10/07 05:41:25;;;;;;;6.67;4.10;;;;;;;;;;5127758;22;20480;-78
2023/10/07 05:43:53;;;;;;;7.80;3.40;;;;;;;;;;5089862;28;20736;-78
2023/10/07 05:46:21;;;;;;;8.50;4.97;;;;;;;;;;5085617;28;20576;-78
2023/10/07 05:48:51;;;;;;;4.80;3.30;;;;;;;;;;5083224;28;20449;-79
2023/10/07 05:51:18;;;;;;;5.13;2.80;;;;;;;;;;5086570;28;20539;-78
2023/10/07 05:53:48;;;;;;;6.83;2.70;;;;;;;;;;5082373;28;20544;-78
2023/10/07 05:56:16;;;;;;;4.63;2.70;;;;;;;;;;5083934;28;20510;-78
2023/10/07 05:58:45;;;;;;;4.40;2.60;;;;;;;;;;5084766;28;20436;-80
2023/10/07 06:01:14;;;;;;;4.30;1.90;;;;;;;;;;5090418;28;20485;-78
2023/10/07 06:03:42;;;;;;;4.33;1.97;;;;;;;;;;5089686;28;20495;-79
2023/10/07 06:17:56;;;;;;;4.63;2.50;;;;;;;;;;5087310;28;20435;-78
2023/10/07 06:21:00;;;;;;;3.67;2.67;;;;;;;;;;5079953;28;20460;-77
2023/10/07 06:26:53;;;;;;;5.07;3.50;;;;;;;;;;5050034;28;20548;-78
2023/10/07 06:32:55;;;;;;;7.17;4.27;;;;;;;;;;5091395;28;20471;-77
2023/10/07 06:35:37;;;;;;;6.30;4.63;;;;;;;;;;5104126;28;20455;-78
2023/10/07 06:41:29;;;;;;;6.60;4.23;;;;;;;;;;5106283;22;20710;-78
2023/10/07 06:44:02;;;;;;;5.67;4.70;;;;;;;;;;5060106;28;20568;-78
2023/10/07 06:46:40;;;;;;;5.03;4.30;;;;;;;;;;5058896;28;20453;-77
2023/10/07 06:49:16;;;;;;;9.33;4.63;;;;;;;;;;5059593;28;20727;-78
2023/10/07 06:51:45;;;;;;;6.90;4.53;;;;;;;;;;5063059;28;20445;-78
2023/10/07 06:54:14;;;;;;;5.73;3.83;;;;;;;;;;5066527;28;20464;-78
2023/10/07 06:56:45;;;;;;;5.30;3.80;;;;;;;;;;5065682;28;20441;-78
2023/10/07 06:59:18;;;;;;;4.77;4.27;;;;;;;;;;5065376;28;20457;-79
2023/10/07 07:01:55;;;;;;;5.33;4.40;;;;;;;;;;5069931;28;21112;-78
2023/10/07 07:04:23;;;;;;;5.17;4.33;;;;;;;;;;5078944;28;20527;-78
2023/10/07 07:12:26;;;;;;;6.00;4.37;;;;;;;;;;4902256;26;20487;-78
2023/10/07 07:18:44;;;;;;;;;;;;;;;;;;;;;
2023/10/07 07:21:35;;;;;;;6.97;5.10;;;;;;;;;;4980186;28;20515;-79
2023/10/07 07:25:03;;;;;;;;;;;;;;;;;;;;;
2023/10/07 07:27:40;;;;;;;6.10;5.50;;;;;;;;;;4991275;28;20470;-78
2023/10/07 07:36:47;;;;;;;;;;;;;;;;;;;;;
2023/10/07 07:39:30;;;;;;;7.70;5.30;;;;;;;;;;5024478;28;20883;-80
2023/10/07 07:42:15;;;;;;;9.00;5.30;;;;;;;;;;5049147;22;21120;-79
2023/10/07 07:44:55;;;;;;;8.23;6.23;;;;;;;;;;5059614;28;20518;-80
2023/10/07 07:47:24;;;;;;;10.60;7.27;;;;;;;;;;5047478;28;20468;-79
2023/10/07 07:49:53;;;;;;;7.80;6.47;;;;;;;;;;5047880;28;20485;-79
2023/10/07 07:52:20;;;;;;;9.70;6.50;;;;;;;;;;5040541;28;20457;-79
2023/10/07 07:54:48;;;;;;;14.63;11.00;;;;;;;;;;5042600;28;20477;-78
2023/10/07 07:57:18;;;;;;;9.27;6.67;;;;;;;;;;5065171;28;20453;-79
2023/10/07 07:59:45;;;;;;;10.87;7.40;;;;;;;;;;5055029;28;20466;-78
2023/10/07 08:02:13;;;;;;;10.50;7.40;;;;;;;;;;5043367;28;20514;-77
2023/10/07 08:04:43;;;;;;;22.67;8.80;;;;;;;;;;5061402;28;20457;-78
2023/10/07 08:07:18;;;;;;;11.27;8.57;;;;;;;;;;5051892;28;20925;-79
2023/10/07 08:09:50;;;;;;;10.27;7.90;;;;;;;;;;5041602;28;20489;-78
2023/10/07 08:12:28;;;;;;;10.70;8.97;;;;;;;;;;5053474;28;20476;-80
2023/10/07 08:14:58;;;;;;;16.73;8.87;;;;;;;;;;5068152;28;20472;-81
2023/10/07 08:17:27;;;;;;;15.53;8.77;;;;;;;;;;5082903;28;20464;-78
2023/10/07 08:19:57;;;;;;;11.83;8.63;;;;;;;;;;5069285;28;20464;-77
2023/10/07 08:22:27;;;;;;;11.17;8.87;;;;;;;;;;5067336;28;20470;-77
2023/10/07 08:25:00;;;;;;;11.50;9.17;;;;;;;;;;5069372;28;20441;-77
2023/10/07 08:27:49;;;;;;;15.50;9.00;;;;;;;;;;5075511;28;20791;-78
2023/10/07 08:30:37;;;;;;;13.20;9.23;;;;;;;;;;5049548;28;20453;-79
2023/10/07 08:33:06;;;;;;;14.23;9.23;;;;;;;;;;5050497;28;20441;-78
2023/10/07 08:35:34;;;;;;;12.30;8.63;;;;;;;;;;5066924;28;20485;-77
2023/10/07 08:38:19;;;;;;;9.67;7.03;;;;;;;;;;5071638;28;20467;-78
2023/10/07 08:40:49;;;;;;;14.30;8.47;;;;;;;;;;5068860;28;20452;-79
2023/10/07 08:43:25;;;;;;;13.10;8.80;;;;;;;;;;5052152;28;20474;-79
2023/10/07 08:46:01;;;;;;;12.43;8.20;;;;;;;;;;5060624;28;20461;-78
2023/10/07 08:48:30;;;;;;;9.90;8.30;;;;;;;;;;5065772;28;20453;-79
2023/10/07 08:50:59;;;;;;;11.33;8.10;;;;;;;;;;5083107;28;20444;-83
2023/10/07 08:53:28;;;;;;;13.00;7.83;;;;;;;;;;5077218;28;20758;-79
2023/10/07 08:56:08;;;;;;;8.23;7.10;;;;;;;;;;5073938;28;20571;-79
2023/10/07 08:58:43;;;;;;;9.30;7.13;;;;;;;;;;5063074;28;20477;-78
2023/10/07 09:01:19;;;;;;;8.43;7.63;;;;;;;;;;5061413;28;20437;-77
2023/10/07 09:03:49;;;;;;;9.17;6.73;;;;;;;;;;5058273;28;20465;-79
2023/10/07 09:06:27;;;;;;;7.70;5.90;;;;;;;;;;5061842;28;20844;-78
2023/10/07 09:09:07;;;;;;;7.70;5.70;;;;;;;;;;5047342;28;20508;-78
2023/10/07 09:11:38;;;;;;;7.73;6.27;;;;;;;;;;5062388;28;20461;-79
2023/10/07 09:14:10;;;;;;;7.33;5.40;;;;;;;;;;5059295;28;20519;-80
2023/10/07 09:16:42;;;;;;;7.83;6.20;;;;;;;;;;5047016;28;20461;-78
2023/10/07 09:19:19;;;;;;;5.50;4.37;;;;;;;;;;5050130;28;20461;-77
2023/10/07 09:21:57;;;;;;;7.60;4.63;;;;;;;;;;5067036;28;20585;-78
2023/10/07 09:24:28;;;;;;;6.90;5.40;;;;;;;;;;5064262;28;20692;-77
2023/10/07 09:26:58;;;;;;;5.50;4.40;;;;;;;;;;5058539;28;20466;-78
2023/10/07 09:29:32;;;;;;;6.23;3.97;;;;;;;;;;5040698;28;20454;-77
2023/10/07 09:32:16;;;;;;;4.57;4.00;;;;;;;;;;5049016;28;20453;-77
2023/10/07 09:34:47;;;;;;;9.50;8.50;;;;;;;;;;5044213;28;20439;-78
2023/10/07 09:37:18;;;;;;;5.63;3.27;;;;;;;;;;5053775;28;20496;-78
2023/10/07 09:39:53;;;;;;;5.37;2.73;;;;;;;;;;5052458;28;20496;-77
2023/10/07 09:42:36;;;;;;;2.50;1.03;;;;;;;;;;5049711;28;21055;-77
2023/10/07 09:45:17;;;;;;;4.20;2.63;;;;;;;;;;5062016;28;20465;-79
2023/10/07 09:47:46;;;;;;;2.50;1.30;;;;;;;;;;5055124;28;20457;-78
2023/10/07 09:50:25;;;;;;;2.40;1.10;;;;;;;;;;5058213;28;20469;-78
2023/10/07 09:52:59;;;;;;;2.30;0.83;;;;;;;;;;5062177;28;20591;-78
2023/10/07 09:55:31;;;;;;;2.50;0.87;;;;;;;;;;5066806;28;20544;-78
2023/10/07 09:58:08;;;;;;;4.33;2.10;;;;;;;;;;5069281;28;20458;-79
2023/10/07 10:00:46;;;;;;;2.60;0.90;;;;;;;;;;5051944;28;20500;-78
2023/10/07 10:03:28;;;;;;;1.80;0.60;;;;;;;;;;5079047;28;20492;-79
2023/10/07 10:06:07;;;;;;;1.70;0.60;;;;;;;;;;5068622;28;20596;-78
2023/10/07 10:08:44;;;;;;;2.20;0.90;;;;;;;;;;5062078;28;20461;-78
2023/10/07 10:11:30;;;;;;;1.90;0.70;;;;;;;;;;5061506;28;20484;-78
2023/10/07 10:14:19;;;;;;;2.07;0.80;;;;;;;;;;5055860;28;20468;-79
2023/10/07 10:16:51;;;;;;;2.03;0.80;;;;;;;;;;5060233;28;20484;-80
2023/10/07 10:19:28;;;;;;;2.07;1.00;;;;;;;;;;5062892;28;20457;-78
2023/10/07 10:21:57;;;;;;;2.50;0.80;;;;;;;;;;5066116;28;20489;-79
2023/10/07 10:24:28;;;;;;;1.90;0.80;;;;;;;;;;5059354;28;20492;-80
2023/10/07 10:30:10;;;;;;;1.97;0.90;;;;;;;;;;5035969;28;20476;-79
2023/10/07 10:32:44;;;;;;;2.17;1.00;;;;;;;;;;5054148;28;20465;-79
2023/10/07 10:35:26;;;;;;;2.30;0.93;;;;;;;;;;5045611;28;20458;-79
2023/10/07 10:37:57;;;;;;;2.93;1.30;;;;;;;;;;5052822;28;20737;-78
2023/10/07 10:40:31;;;;;;;3.20;0.97;;;;;;;;;;5063588;28;20472;-78
2023/10/07 10:42:59;;;;;;;2.07;0.70;;;;;;;;;;5068564;28;20497;-79
2023/10/07 10:45:42;;;;;;;3.43;0.90;;;;;;;;;;5060606;28;20449;-79
2023/10/07 10:48:14;;;;;;;2.27;0.80;;;;;;;;;;5066330;28;20556;-77
2023/10/07 10:50:42;;;;;;;2.00;0.70;;;;;;;;;;5049833;28;20506;-79
2023/10/07 10:53:10;;;;;;;1.70;0.60;;;;;;;;;;5061257;28;20458;-79
2023/10/07 10:55:39;;;;;;;2.10;0.70;;;;;;;;;;5056311;28;20457;-78
2023/10/07 10:58:17;;;;;;;2.20;0.80;;;;;;;;;;5063369;28;20457;-77
2023/10/07 11:00:49;;;;;;;2.93;0.80;;;;;;;;;;5059369;28;20484;-78
2023/10/07 11:03:20;;;;;;;2.07;0.87;;;;;;;;;;5054907;28;20486;-78
2023/10/07 11:05:49;;;;;;;2.10;0.87;;;;;;;;;;5039649;28;20906;-78
2023/10/07 11:08:22;;;;;;;2.50;1.07;;;;;;;;;;5049865;28;21146;-78
2023/10/07 11:11:10;;;;;;;3.23;1.47;;;;;;;;;;5058044;28;20449;-78
2023/10/07 11:13:57;;;;;;;2.37;0.90;;;;;;;;;;5057167;28;20519;-78
2023/10/07 11:16:26;;;;;;;2.77;0.90;;;;;;;;;;5064873;28;20460;-78
2023/10/07 11:18:57;;;;;;;3.40;1.27;;;;;;;;;;5063546;28;20552;-80
2023/10/07 11:21:24;;;;;;;2.77;1.20;;;;;;;;;;5063799;28;20486;-79
2023/10/07 11:23:53;;;;;;;2.00;0.77;;;;;;;;;;5060162;28;20489;-80
2023/10/07 11:26:24;;;;;;;2.30;0.90;;;;;;;;;;5068147;28;20508;-78
2023/10/07 11:28:56;;;;;;;1.90;0.80;;;;;;;;;;5052910;28;20450;-81
2023/10/07 11:31:30;;;;;;;2.37;1.10;;;;;;;;;;5056343;28;20457;-80
2023/10/07 11:34:01;;;;;;;2.07;0.80;;;;;;;;;;5055285;28;20465;-79
2023/10/07 11:36:29;;;;;;;1.90;0.70;;;;;;;;;;5064603;28;20966;-78
2023/10/07 11:38:57;;;;;;;2.00;0.73;;;;;;;;;;5059414;28;20458;-78
2023/10/07 11:41:29;;;;;;;2.50;0.70;;;;;;;;;;5050755;28;20470;-82
2023/10/07 11:43:57;;;;;;;1.80;0.60;;;;;;;;;;5043221;28;20482;-78
2023/10/07 11:46:25;;;;;;;2.13;0.80;;;;;;;;;;5042129;28;20461;-78
2023/10/07 11:48:53;;;;;;;2.97;0.80;;;;;;;;;;5054151;28;20473;-78
2023/10/07 11:51:25;;;;;;;1.70;0.60;;;;;;;;;;5064091;28;20463;-77
2023/10/07 11:53:57;;;;;;;2.67;0.70;;;;;;;;;;5058412;28;20453;-78
2023/10/07 11:56:25;;;;;;;2.63;1.03;;;;;;;;;;5050669;28;20470;-78
2023/10/07 11:58:56;;;;;;;2.33;0.70;;;;;;;;;;5048898;28;20521;-78
2023/10/07 12:01:24;;;;;;;1.90;0.60;;;;;;;;;;5060206;28;20470;-78
2023/10/07 12:03:53;;;;;;;2.50;1.17;;;;;;;;;;5061743;28;20497;-78
2023/10/07 12:06:25;;;;;;;2.33;1.07;;;;;;;;;;5059523;28;20488;-78
2023/10/07 12:08:55;;;;;;;2.00;0.87;;;;;;;;;;5060981;28;20446;-78
2023/10/07 12:11:25;;;;;;;2.10;0.90;;;;;;;;;;5047569;28;20459;-78
2023/10/07 12:13:53;;;;;;;3.40;1.20;;;;;;;;;;5047098;28;20532;-79
2023/10/07 12:16:24;;;;;;;2.87;0.80;;;;;;;;;;5041359;28;20517;-79
2023/10/07 12:19:04;;;;;;;2.20;0.90;;;;;;;;;;5044506;28;20454;-78
2023/10/07 12:21:36;;;;;;;3.40;1.60;;;;;;;;;;5020768;28;20497;-79
2023/10/07 12:24:06;;;;;;;1.90;0.83;;;;;;;;;;5048487;28;20849;-77
2023/10/07 12:26:35;;;;;;;2.37;1.03;;;;;;;;;;5049815;28;20464;-79
2023/10/07 12:29:06;;;;;;;3.97;1.67;;;;;;;;;;5046839;28;20897;-78
2023/10/07 12:31:36;;;;;;;3.37;1.27;;;;;;;;;;5043341;28;20565;-79
2023/10/07 12:34:09;;;;;;;3.23;2.07;;;;;;;;;;5041250;28;20485;-78
2023/10/07 12:36:39;;;;;;;2.60;0.90;;;;;;;;;;5046456;28;20438;-78
2023/10/07 12:39:11;;;;;;;4.30;1.10;;;;;;;;;;5042344;28;20968;-78
2023/10/07 12:41:39;;;;;;;2.03;0.80;;;;;;;;;;5037455;28;20512;-79
2023/10/07 12:44:09;;;;;;;2.20;0.80;;;;;;;;;;5052402;28;20480;-79
2023/10/07 12:46:39;;;;;;;4.43;1.17;;;;;;;;;;5049567;28;20464;-79
2023/10/07 12:49:14;;;;;;;3.10;1.30;;;;;;;;;;5037363;28;20463;-80
2023/10/07 12:51:44;;;;;;;2.70;1.03;;;;;;;;;;5058638;28;20448;-80
2023/10/07 12:54:12;;;;;;;5.03;1.03;;;;;;;;;;5054425;28;20517;-80
2023/10/07 12:56:42;;;;;;;2.10;0.90;;;;;;;;;;5052540;28;20455;-78
2023/10/07 12:59:21;;;;;;;2.10;0.83;;;;;;;;;;5054060;28;20462;-79
2023/10/07 13:01:51;;;;;;;2.00;0.70;;;;;;;;;;5043834;28;20458;-77
2023/10/07 13:04:34;;;;;;;1.60;0.60;;;;;;;;;;5064142;28;20509;-80
2023/10/07 13:07:10;;;;;;;1.97;0.70;;;;;;;;;;5059146;28;20453;-80
2023/10/07 13:09:40;;;;;;;1.80;0.87;;;;;;;;;;5066104;28;20489;-81
2023/10/07 13:12:15;;;;;;;2.00;0.70;;;;;;;;;;5042442;28;20465;-78
2023/10/07 13:14:45;;;;;;;1.80;0.50;;;;;;;;;;5038928;28;20485;-79
2023/10/07 13:17:14;;;;;;;1.80;0.60;;;;;;;;;;5039560;28;20458;-79
2023/10/07 13:19:50;;;;;;;2.27;0.70;;;;;;;;;;5037808;28;20490;-79
2023/10/07 13:22:19;;;;;;;1.80;0.60;;;;;;;;;;5033547;28;20473;-78
2023/10/07 13:24:48;;;;;;;1.67;0.60;;;;;;;;;;5040808;28;20476;-79
2023/10/07 13:27:16;;;;;;;1.70;0.60;;;;;;;;;;5029463;28;20876;-78
2023/10/07 13:29:54;;;;;;;3.40;0.70;;;;;;;;;;5039056;28;20470;-79
2023/10/07 13:32:22;;;;;;;2.40;0.53;;;;;;;;;;5054563;28;20462;-80
2023/10/07 13:34:58;;;;;;;1.70;0.50;;;;;;;;;;5055385;28;20458;-78
2023/10/07 13:37:29;;;;;;;1.87;0.67;;;;;;;;;;5056395;28;20442;-78
2023/10/07 13:39:57;;;;;;;3.50;1.70;;;;;;;;;;5055479;28;20871;-79
2023/10/07 13:42:25;;;;;;;2.73;0.60;;;;;;;;;;5049197;28;20494;-79
2023/10/07 13:44:53;;;;;;;1.70;0.50;;;;;;;;;;5048332;28;20724;-79
2023/10/07 13:47:26;;;;;;;1.90;0.67;;;;;;;;;;5049581;28;20914;-78
2023/10/07 13:49:55;;;;;;;1.80;0.70;;;;;;;;;;5053819;28;20537;-78
2023/10/07 13:52:23;;;;;;;2.53;1.50;;;;;;;;;;5041741;28;20857;-77
2023/10/07 13:55:18;;;;;;;2.30;1.30;;;;;;;;;;5039806;28;20537;-77
2023/10/07 13:57:46;;;;;;;2.63;1.53;;;;;;;;;;5034536;28;20468;-77
2023/10/07 14:00:28;;;;;;;2.43;1.63;;;;;;;;;;5052080;28;20889;-78
2023/10/07 14:02:56;;;;;;;3.50;2.03;;;;;;;;;;5024933;28;20611;-77
2023/10/07 14:05:25;;;;;;;2.50;1.50;;;;;;;;;;5023109;28;20473;-78
2023/10/07 14:07:55;;;;;;;2.73;1.70;;;;;;;;;;5034647;28;20474;-79
2023/10/07 14:10:25;;;;;;;5.83;3.87;;;;;;;;;;5038366;28;20469;-80
2023/10/07 14:12:53;;;;;;;2.80;2.00;;;;;;;;;;5052695;28;20449;-79
2023/10/07 14:15:20;;;;;;;2.80;1.60;;;;;;;;;;5051978;28;20471;-77
2023/10/07 14:17:48;;;;;;;2.83;1.40;;;;;;;;;;5068736;28;20473;-78
2023/10/07 14:20:23;;;;;;;2.90;1.87;;;;;;;;;;5051948;28;20481;-80
2023/10/07 14:22:50;;;;;;;2.97;1.67;;;;;;;;;;5017099;28;20522;-78
2023/10/07 14:25:20;;;;;;;2.70;1.60;;;;;;;;;;5024686;28;20459;-79
2023/10/07 14:27:53;;;;;;;7.90;6.00;;;;;;;;;;5034911;28;20826;-79
2023/10/07 14:30:22;;;;;;;3.73;2.30;;;;;;;;;;5031472;28;20459;-78
2023/10/07 14:32:51;;;;;;;8.23;6.40;;;;;;;;;;5030833;28;20903;-79
2023/10/07 14:35:20;;;;;;;6.20;4.27;;;;;;;;;;5033135;28;20459;-78
2023/10/07 14:37:48;;;;;;;3.37;1.73;;;;;;;;;;5033384;28;20432;-77
2023/10/07 14:40:20;;;;;;;11.17;8.50;;;;;;;;;;5033314;28;20482;-79
2023/10/07 14:42:50;;;;;;;3.77;2.90;;;;;;;;;;5032836;28;20510;-79
2023/10/07 14:45:19;;;;;;;4.37;2.60;;;;;;;;;;5032518;28;20491;-80
2023/10/07 14:47:48;;;;;;;3.93;2.60;;;;;;;;;;5032722;28;20478;-79
2023/10/07 14:50:21;;;;;;;3.87;1.90;;;;;;;;;;5033579;28;20515;-78
2023/10/07 14:55:49;;;;;;;8.10;6.60;;;;;;;;;;5035024;28;20432;-79
2023/10/07 14:58:19;;;;;;;3.63;2.40;;;;;;;;;;5024036;28;20830;-78
2023/10/07 15:00:47;;;;;;;3.70;2.40;;;;;;;;;;5021724;28;20526;-77
2023/10/07 15:03:16;;;;;;;3.10;2.20;;;;;;;;;;5018364;28;20487;-78
2023/10/07 15:05:44;;;;;;;3.70;2.40;;;;;;;;;;5017362;28;20525;-78
2023/10/07 15:08:13;;;;;;;3.87;2.63;;;;;;;;;;5016944;28;20521;-78
2023/10/07 15:10:43;;;;;;;3.37;1.90;;;;;;;;;;5028486;28;20474;-79
2023/10/07 15:13:11;;;;;;;2.67;1.77;;;;;;;;;;5052550;28;20446;-79
2023/10/07 15:15:41;;;;;;;3.50;2.23;;;;;;;;;;5047008;28;20466;-78
2023/10/07 15:18:09;;;;;;;6.10;2.77;;;;;;;;;;5036330;28;20551;-79
2023/10/07 15:20:37;;;;;;;3.60;2.40;;;;;;;;;;5049920;28;20489;-79
2023/10/07 15:23:08;;;;;;;3.40;1.80;;;;;;;;;;5051784;28;20518;-78
2023/10/07 15:25:45;;;;;;;4.40;2.80;;;;;;;;;;5038043;28;21027;-78
2023/10/07 15:28:14;;;;;;;3.37;2.27;;;;;;;;;;5034157;28;20898;-78
2023/10/07 15:30:45;;;;;;;3.03;1.90;;;;;;;;;;5037108;28;20526;-77
2023/10/07 15:33:14;;;;;;;3.30;1.80;;;;;;;;;;5034895;28;20493;-78
2023/10/07 15:35:44;;;;;;;2.83;1.90;;;;;;;;;;5034529;28;20826;-78
2023/10/07 15:38:13;;;;;;;4.07;1.73;;;;;;;;;;5036002;28;20470;-79
2023/10/07 15:40:43;;;;;;;3.70;2.50;;;;;;;;;;5043159;28;20442;-79
2023/10/07 15:43:13;;;;;;;3.60;1.33;;;;;;;;;;5051963;28;20486;-78
2023/10/07 15:45:45;;;;;;;3.30;1.90;;;;;;;;;;5047604;28;20454;-78
2023/10/07 15:48:16;;;;;;;3.70;1.70;;;;;;;;;;5033277;28;20466;-78
2023/10/07 15:50:45;;;;;;;2.90;1.70;;;;;;;;;;5037173;28;20450;-78
2023/10/07 15:53:15;;;;;;;3.60;1.90;;;;;;;;;;5040921;28;20513;-79
2023/10/07 15:55:45;;;;;;;4.60;2.50;;;;;;;;;;5051307;28;20431;-78
2023/10/07 15:58:12;;;;;;;3.73;2.50;;;;;;;;;;5051210;28;20414;-79
2023/10/07 16:00:40;;;;;;;2.70;1.80;;;;;;;;;;5051903;28;20462;-78
2023/10/07 16:03:11;;;;;;;3.10;1.60;;;;;;;;;;5051458;28;20443;-79
2023/10/07 16:05:38;;;;;;;3.00;1.43;;;;;;;;;;5037910;28;20447;-78
2023/10/07 16:08:10;;;;;;;3.83;2.27;;;;;;;;;;5038230;28;20450;-78
2023/10/07 16:10:39;;;;;;;4.90;1.77;;;;;;;;;;5043427;28;20464;-79
2023/10/07 16:13:11;;;;;;;2.93;1.73;;;;;;;;;;5052867;28;20419;-79
2023/10/07 16:15:40;;;;;;;4.23;2.00;;;;;;;;;;5052148;28;20477;-79
2023/10/07 16:18:11;;;;;;;2.40;1.03;;;;;;;;;;5049575;28;20735;-79
2023/10/07 16:20:39;;;;;;;3.20;1.50;;;;;;;;;;5042252;28;20450;-78
2023/10/07 16:23:08;;;;;;;3.00;1.27;;;;;;;;;;5033298;28;20508;-78